Aberdeen, United Kingdom

1:44 PM BST on August 21, 2014 (GMT +0100)
Brigde of Don | Change Station
CLOSE
Current Station
Personal Weather Station
Location: Aberdeen, SCOTLAND
Elevation: 233 ft
Nearby Weather Stations

Elev 233 ft 57.20 °N, 2.13 °W | Updated 9 seconds ago

Rain
Rain
52.9 °F
Feels Like 52.9 °F
N
4.0
Wind Variable Wind from NW
Gusts 7.0 mph

Today
High -- | Low -- °F
--% Chance of Precip.
Yesterday
High -- | Low -- °F
Precip. -- in
5:47 AM 8:35 PM
Waning Crescent, 14% visible
Pressure 29.65 in
Visibility 6.2 miles
Clouds Scattered Clouds 1600 ft
Dew Point 49 °F
Humidity 88%
Rainfall 0.20 in
Snow Depth Not available.
UV 6 out of 12
Pollen Not available.
Air Quality Not available.
Flu Activity Not available.
METAR EGPD 211220Z 32006KT 9999 SCT016 12/10 Q1004 NOSIG

More Conditions Fewer Conditions

Pressure 29.65 in
Visibility 6.2 miles
Clouds Scattered Clouds 1600 ft
Dew Point 49 °F
Humidity 88%
Rainfall 0.20 in
Snow Depth Not available.
UV 6 out of 12
Pollen Not available.
Air Quality Not available.
Flu Activity Not available.
METAR EGPD 211220Z 32006KT 9999 SCT016 12/10 Q1004 NOSIG

More Conditions Fewer Conditions

10-Day Weather Forecast

Almanac

Astronomy

Aug. 21, 2014 Rise Set
Actual Time 5:47 AM BST 8:35 PM BST
Civil Twilight 5:03 AM BST 9:18 PM BST
Nautical Twilight 4:05 AM BST 10:16 PM BST
Astronomical Twilight 2:45 AM BST 11:33 PM BST
Moon 1:43 AM BST 6:12 PM BST
Length of Visible Light 16h 14m
Length of Day
14h 47m
Tomorrow will be 4m 40s shorter.
Waning Crescent, 14% of the Moon is Illuminated
Today
Waning Crescent
Aug 25
New
Sep 2
First Quarter
Sep 8
Full
Sep 15
Last Quarter

Yesterday's Extremes

Country Highs Country Lows

Community

WunderPhotos

Upload Photos

1,745,895 photos uploaded!

WunderBlogs® & News

Nearby

Snow Depth

Not available.

Earthquake Activity

City Distance Mag. Time & Date
No recent earthquake activity has been reported nearby.
Minimum magnitude displayed is 2.5.

Coastal Water Temperatures

Place Temperature
No Stations Reporting

Nearby Weather Stations